sensor_id;sensor_type;location;lat;lon;timestamp;P1;durP1;ratioP1;P2;durP2;ratioP2
15968;SDS011;8085;53.472;9.794;2023-08-20T02:18:46;10.50;;;5.30;;
15968;SDS011;8085;53.472;9.794;2023-08-20T02:21:13;12.77;;;5.50;;
15968;SDS011;8085;53.472;9.794;2023-08-20T02:23:40;11.55;;;7.43;;
15968;SDS011;8085;53.472;9.794;2023-08-20T02:26:07;10.50;;;6.10;;
15968;SDS011;8085;53.472;9.794;2023-08-20T02:28:33;9.90;;;6.63;;
15968;SDS011;8085;53.472;9.794;2023-08-20T02:31:03;12.23;;;6.90;;
15968;SDS011;8085;53.472;9.794;2023-08-20T02:33:30;13.63;;;7.72;;
15968;SDS011;8085;53.472;9.794;2023-08-20T02:36:01;11.32;;;7.95;;
15968;SDS011;8085;53.472;9.794;2023-08-20T02:38:29;12.85;;;7.53;;
15968;SDS011;8085;53.472;9.794;2023-08-20T02:40:56;18.10;;;7.93;;
15968;SDS011;8085;53.472;9.794;2023-08-20T02:43:23;17.00;;;8.27;;
15968;SDS011;8085;53.472;9.794;2023-08-20T02:45:50;12.63;;;8.18;;
15968;SDS011;8085;53.472;9.794;2023-08-20T02:48:17;17.08;;;7.15;;
15968;SDS011;8085;53.472;9.794;2023-08-20T02:50:44;13.82;;;7.97;;
15968;SDS011;8085;53.472;9.794;2023-08-20T02:53:12;15.13;;;7.90;;
15968;SDS011;8085;53.472;9.794;2023-08-20T02:55:39;9.15;;;7.10;;
15968;SDS011;8085;53.472;9.794;2023-08-20T02:58:06;9.75;;;7.40;;
15968;SDS011;8085;53.472;9.794;2023-08-20T03:00:34;9.60;;;7.32;;
15968;SDS011;8085;53.472;9.794;2023-08-20T03:03:01;15.20;;;7.32;;
15968;SDS011;8085;53.472;9.794;2023-08-20T03:05:30;11.25;;;7.88;;
15968;SDS011;8085;53.472;9.794;2023-08-20T03:07:57;9.82;;;7.60;;
15968;SDS011;8085;53.472;9.794;2023-08-20T03:10:25;9.45;;;7.05;;
15968;SDS011;8085;53.472;9.794;2023-08-20T03:12:53;9.80;;;7.10;;
15968;SDS011;8085;53.472;9.794;2023-08-20T03:15:20;16.70;;;7.63;;
15968;SDS011;8085;53.472;9.794;2023-08-20T03:17:46;8.60;;;7.28;;
15968;SDS011;8085;53.472;9.794;2023-08-20T03:20:13;17.30;;;6.75;;
15968;SDS011;8085;53.472;9.794;2023-08-20T03:22:40;21.50;;;6.60;;
15968;SDS011;8085;53.472;9.794;2023-08-20T03:25:08;8.90;;;6.03;;
15968;SDS011;8085;53.472;9.794;2023-08-20T03:27:36;11.02;;;7.45;;
15968;SDS011;8085;53.472;9.794;2023-08-20T03:30:03;8.52;;;6.97;;
15968;SDS011;8085;53.472;9.794;2023-08-20T03:32:31;13.88;;;7.50;;
15968;SDS011;8085;53.472;9.794;2023-08-20T03:34:58;42.00;;;7.45;;
15968;SDS011;8085;53.472;9.794;2023-08-20T03:37:25;8.40;;;5.80;;
15968;SDS011;8085;53.472;9.794;2023-08-20T03:39:52;12.63;;;6.80;;
15968;SDS011;8085;53.472;9.794;2023-08-20T03:42:19;19.80;;;7.78;;
15968;SDS011;8085;53.472;9.794;2023-08-20T03:44:47;29.77;;;8.20;;
15968;SDS011;8085;53.472;9.794;2023-08-20T03:47:14;14.52;;;8.38;;
15968;SDS011;8085;53.472;9.794;2023-08-20T03:49:45;18.95;;;7.72;;
15968;SDS011;8085;53.472;9.794;2023-08-20T03:52:12;24.42;;;7.68;;
15968;SDS011;8085;53.472;9.794;2023-08-20T03:54:39;19.58;;;8.65;;
15968;SDS011;8085;53.472;9.794;2023-08-20T03:57:05;19.50;;;8.65;;
15968;SDS011;8085;53.472;9.794;2023-08-20T03:59:32;13.73;;;8.90;;
15968;SDS011;8085;53.472;9.794;2023-08-20T04:02:01;14.82;;;9.48;;
15968;SDS011;8085;53.472;9.794;2023-08-20T04:04:27;11.98;;;8.50;;
15968;SDS011;8085;53.472;9.794;2023-08-20T04:06:54;14.82;;;9.32;;
15968;SDS011;8085;53.472;9.794;2023-08-20T04:09:21;22.48;;;8.90;;
15968;SDS011;8085;53.472;9.794;2023-08-20T04:11:48;18.98;;;8.77;;
15968;SDS011;8085;53.472;9.794;2023-08-20T04:14:15;14.93;;;9.85;;
15968;SDS011;8085;53.472;9.794;2023-08-20T04:16:42;15.88;;;10.35;;
15968;SDS011;8085;53.472;9.794;2023-08-20T04:19:10;23.13;;;9.73;;
15968;SDS011;8085;53.472;9.794;2023-08-20T04:21:37;26.05;;;11.55;;
15968;SDS011;8085;53.472;9.794;2023-08-20T04:24:04;19.35;;;11.20;;
15968;SDS011;8085;53.472;9.794;2023-08-20T04:26:31;24.00;;;11.10;;
15968;SDS011;8085;53.472;9.794;2023-08-20T04:28:59;25.60;;;11.95;;
15968;SDS011;8085;53.472;9.794;2023-08-20T04:31:26;24.70;;;12.20;;
15968;SDS011;8085;53.472;9.794;2023-08-20T04:33:53;26.55;;;13.40;;
15968;SDS011;8085;53.472;9.794;2023-08-20T04:36:22;31.92;;;11.07;;
15968;SDS011;8085;53.472;9.794;2023-08-20T04:38:49;22.58;;;12.82;;
15968;SDS011;8085;53.472;9.794;2023-08-20T04:41:16;21.20;;;11.65;;
15968;SDS011;8085;53.472;9.794;2023-08-20T04:43:43;23.98;;;13.07;;
15968;SDS011;8085;53.472;9.794;2023-08-20T04:46:10;48.63;;;11.90;;
15968;SDS011;8085;53.472;9.794;2023-08-20T04:48:36;21.48;;;10.77;;
15968;SDS011;8085;53.472;9.794;2023-08-20T04:51:05;30.70;;;12.13;;
15968;SDS011;8085;53.472;9.794;2023-08-20T04:53:33;36.65;;;12.10;;
15968;SDS011;8085;53.472;9.794;2023-08-20T04:56:00;31.77;;;12.63;;
15968;SDS011;8085;53.472;9.794;2023-08-20T04:58:28;18.75;;;11.35;;
15968;SDS011;8085;53.472;9.794;2023-08-20T05:00:54;22.00;;;11.25;;
15968;SDS011;8085;53.472;9.794;2023-08-20T05:03:21;21.58;;;11.48;;
15968;SDS011;8085;53.472;9.794;2023-08-20T05:05:49;24.08;;;11.30;;
15968;SDS011;8085;53.472;9.794;2023-08-20T05:08:16;25.33;;;11.80;;
15968;SDS011;8085;53.472;9.794;2023-08-20T05:10:44;35.38;;;11.68;;
15968;SDS011;8085;53.472;9.794;2023-08-20T05:13:11;24.02;;;11.23;;
15968;SDS011;8085;53.472;9.794;2023-08-20T05:15:38;21.55;;;10.70;;
15968;SDS011;8085;53.472;9.794;2023-08-20T05:18:05;36.97;;;11.70;;
15968;SDS011;8085;53.472;9.794;2023-08-20T05:20:32;38.83;;;11.38;;
15968;SDS011;8085;53.472;9.794;2023-08-20T05:22:59;20.48;;;9.30;;
15968;SDS011;8085;53.472;9.794;2023-08-20T05:25:25;19.08;;;11.02;;
15968;SDS011;8085;53.472;9.794;2023-08-20T05:27:54;15.73;;;8.88;;
15968;SDS011;8085;53.472;9.794;2023-08-20T05:30:20;19.15;;;10.35;;
15968;SDS011;8085;53.472;9.794;2023-08-20T05:32:47;22.27;;;11.70;;
15968;SDS011;8085;53.472;9.794;2023-08-20T05:35:14;17.80;;;9.88;;
15968;SDS011;8085;53.472;9.794;2023-08-20T05:37:41;23.08;;;11.07;;
15968;SDS011;8085;53.472;9.794;2023-08-20T05:40:09;18.33;;;10.02;;
15968;SDS011;8085;53.472;9.794;2023-08-20T05:42:36;19.10;;;10.68;;
15968;SDS011;8085;53.472;9.794;2023-08-20T05:45:04;20.90;;;11.20;;
15968;SDS011;8085;53.472;9.794;2023-08-20T05:47:32;26.13;;;10.70;;
15968;SDS011;8085;53.472;9.794;2023-08-20T05:49:58;21.45;;;11.60;;
15968;SDS011;8085;53.472;9.794;2023-08-20T05:52:25;20.75;;;10.38;;
15968;SDS011;8085;53.472;9.794;2023-08-20T05:54:52;17.52;;;9.88;;
15968;SDS011;8085;53.472;9.794;2023-08-20T05:57:19;22.50;;;11.23;;
15968;SDS011;8085;53.472;9.794;2023-08-20T05:59:46;20.33;;;10.02;;
15968;SDS011;8085;53.472;9.794;2023-08-20T06:02:16;18.90;;;10.23;;
15968;SDS011;8085;53.472;9.794;2023-08-20T06:04:43;21.08;;;11.30;;
15968;SDS011;8085;53.472;9.794;2023-08-20T06:07:10;20.63;;;10.75;;
15968;SDS011;8085;53.472;9.794;2023-08-20T06:09:37;18.15;;;9.35;;
15968;SDS011;8085;53.472;9.794;2023-08-20T06:12:04;15.98;;;9.05;;
15968;SDS011;8085;53.472;9.794;2023-08-20T06:14:32;15.63;;;9.73;;
15968;SDS011;8085;53.472;9.794;2023-08-20T06:16:58;18.63;;;10.32;;
15968;SDS011;8085;53.472;9.794;2023-08-20T06:19:27;19.52;;;10.60;;
15968;SDS011;8085;53.472;9.794;2023-08-20T06:21:54;12.60;;;8.30;;
15968;SDS011;8085;53.472;9.794;2023-08-20T06:24:21;16.17;;;9.52;;
15968;SDS011;8085;53.472;9.794;2023-08-20T06:26:48;12.73;;;7.82;;
15968;SDS011;8085;53.472;9.794;2023-08-20T06:29:15;13.68;;;8.57;;
15968;SDS011;8085;53.472;9.794;2023-08-20T06:31:42;16.95;;;9.57;;
15968;SDS011;8085;53.472;9.794;2023-08-20T06:34:09;13.40;;;7.43;;
15968;SDS011;8085;53.472;9.794;2023-08-20T06:36:37;14.82;;;8.48;;
15968;SDS011;8085;53.472;9.794;2023-08-20T06:39:04;17.42;;;9.20;;
15968;SDS011;8085;53.472;9.794;2023-08-20T06:41:31;12.93;;;7.80;;
15968;SDS011;8085;53.472;9.794;2023-08-20T06:43:57;14.30;;;8.80;;
15968;SDS011;8085;53.472;9.794;2023-08-20T06:46:24;16.40;;;8.82;;
15968;SDS011;8085;53.472;9.794;2023-08-20T06:48:51;15.57;;;8.40;;
15968;SDS011;8085;53.472;9.794;2023-08-20T06:51:19;16.75;;;8.27;;
15968;SDS011;8085;53.472;9.794;2023-08-20T06:53:47;12.88;;;8.23;;
15968;SDS011;8085;53.472;9.794;2023-08-20T06:56:14;16.13;;;8.73;;
15968;SDS011;8085;53.472;9.794;2023-08-20T06:58:42;16.63;;;8.80;;
15968;SDS011;8085;53.472;9.794;2023-08-20T07:01:09;16.23;;;8.05;;
15968;SDS011;8085;53.472;9.794;2023-08-20T07:03:38;15.93;;;9.23;;
15968;SDS011;8085;53.472;9.794;2023-08-20T07:06:06;15.35;;;7.95;;
15968;SDS011;8085;53.472;9.794;2023-08-20T07:08:34;16.77;;;7.28;;
15968;SDS011;8085;53.472;9.794;2023-08-20T07:11:02;13.80;;;7.88;;
15968;SDS011;8085;53.472;9.794;2023-08-20T07:13:29;12.02;;;7.10;;
15968;SDS011;8085;53.472;9.794;2023-08-20T07:15:56;12.00;;;6.85;;
15968;SDS011;8085;53.472;9.794;2023-08-20T07:18:23;11.32;;;6.43;;
15968;SDS011;8085;53.472;9.794;2023-08-20T07:20:50;8.43;;;6.20;;
15968;SDS011;8085;53.472;9.794;2023-08-20T07:23:17;9.13;;;6.55;;
15968;SDS011;8085;53.472;9.794;2023-08-20T07:25:44;8.48;;;6.20;;
15968;SDS011;8085;53.472;9.794;2023-08-20T07:28:13;10.98;;;5.53;;
15968;SDS011;8085;53.472;9.794;2023-08-20T07:30:40;9.45;;;6.40;;
15968;SDS011;8085;53.472;9.794;2023-08-20T07:33:07;9.98;;;5.75;;
15968;SDS011;8085;53.472;9.794;2023-08-20T07:35:34;7.07;;;5.45;;
15968;SDS011;8085;53.472;9.794;2023-08-20T07:38:01;6.75;;;5.00;;
15968;SDS011;8085;53.472;9.794;2023-08-20T07:40:28;5.82;;;4.22;;
15968;SDS011;8085;53.472;9.794;2023-08-20T07:42:54;4.68;;;3.85;;
15968;SDS011;8085;53.472;9.794;2023-08-20T07:45:23;5.60;;;4.28;;
15968;SDS011;8085;53.472;9.794;2023-08-20T07:47:50;7.20;;;3.22;;
15968;SDS011;8085;53.472;9.794;2023-08-20T07:50:17;5.00;;;3.28;;
15968;SDS011;8085;53.472;9.794;2023-08-20T07:52:44;5.18;;;2.90;;
15968;SDS011;8085;53.472;9.794;2023-08-20T07:55:11;5.07;;;2.70;;
15968;SDS011;8085;53.472;9.794;2023-08-20T07:57:38;6.20;;;3.72;;
15968;SDS011;8085;53.472;9.794;2023-08-20T08:00:05;7.20;;;3.40;;
15968;SDS011;8085;53.472;9.794;2023-08-20T08:02:34;5.00;;;3.25;;
15968;SDS011;8085;53.472;9.794;2023-08-20T08:05:01;4.85;;;2.20;;
15968;SDS011;8085;53.472;9.794;2023-08-20T08:07:28;4.03;;;2.20;;
15968;SDS011;8085;53.472;9.794;2023-08-20T08:09:55;3.78;;;2.17;;
15968;SDS011;8085;53.472;9.794;2023-08-20T08:12:21;4.68;;;2.00;;
15968;SDS011;8085;53.472;9.794;2023-08-20T08:14:48;3.67;;;2.10;;
15968;SDS011;8085;53.472;9.794;2023-08-20T08:17:15;3.88;;;2.45;;
15968;SDS011;8085;53.472;9.794;2023-08-20T08:19:43;6.13;;;2.15;;
15968;SDS011;8085;53.472;9.794;2023-08-20T08:22:10;4.75;;;2.13;;
15968;SDS011;8085;53.472;9.794;2023-08-20T08:24:38;8.07;;;2.67;;
15968;SDS011;8085;53.472;9.794;2023-08-20T08:27:07;5.15;;;2.03;;
15968;SDS011;8085;53.472;9.794;2023-08-20T08:29:33;4.55;;;2.00;;
15968;SDS011;8085;53.472;9.794;2023-08-20T08:32:00;8.98;;;2.60;;
15968;SDS011;8085;53.472;9.794;2023-08-20T08:34:27;3.85;;;2.08;;
15968;SDS011;8085;53.472;9.794;2023-08-20T08:36:56;5.93;;;2.08;;
15968;SDS011;8085;53.472;9.794;2023-08-20T08:39:22;5.68;;;2.00;;
15968;SDS011;8085;53.472;9.794;2023-08-20T08:41:50;5.82;;;2.15;;
15968;SDS011;8085;53.472;9.794;2023-08-20T08:44:20;6.05;;;2.17;;
15968;SDS011;8085;53.472;9.794;2023-08-20T08:46:48;6.45;;;3.17;;
15968;SDS011;8085;53.472;9.794;2023-08-20T08:49:16;4.93;;;2.47;;
15968;SDS011;8085;53.472;9.794;2023-08-20T08:51:44;4.53;;;2.50;;
15968;SDS011;8085;53.472;9.794;2023-08-20T08:54:13;6.00;;;3.15;;
15968;SDS011;8085;53.472;9.794;2023-08-20T08:56:41;8.43;;;2.78;;
15968;SDS011;8085;53.472;9.794;2023-08-20T08:59:08;6.25;;;3.28;;
15968;SDS011;8085;53.472;9.794;2023-08-20T09:01:37;9.45;;;2.90;;
15968;SDS011;8085;53.472;9.794;2023-08-20T09:04:05;5.72;;;3.60;;
15968;SDS011;8085;53.472;9.794;2023-08-20T09:06:43;6.43;;;3.20;;
15968;SDS011;8085;53.472;9.794;2023-08-20T09:09:11;10.52;;;3.50;;
15968;SDS011;8085;53.472;9.794;2023-08-20T09:11:39;13.00;;;4.47;;
15968;SDS011;8085;53.472;9.794;2023-08-20T09:14:06;9.50;;;2.95;;
15968;SDS011;8085;53.472;9.794;2023-08-20T09:16:33;6.47;;;3.05;;
15968;SDS011;8085;53.472;9.794;2023-08-20T09:19:00;8.18;;;3.20;;
15968;SDS011;8085;53.472;9.794;2023-08-20T09:21:27;8.32;;;2.55;;
15968;SDS011;8085;53.472;9.794;2023-08-20T09:23:55;6.75;;;2.40;;
15968;SDS011;8085;53.472;9.794;2023-08-20T09:26:22;4.72;;;1.90;;
15968;SDS011;8085;53.472;9.794;2023-08-20T09:28:54;11.05;;;2.40;;
15968;SDS011;8085;53.472;9.794;2023-08-20T09:31:22;6.55;;;2.15;;
15968;SDS011;8085;53.472;9.794;2023-08-20T09:34:03;5.28;;;1.80;;
15968;SDS011;8085;53.472;9.794;2023-08-20T09:36:31;8.60;;;1.70;;
15968;SDS011;8085;53.472;9.794;2023-08-20T09:38:58;6.28;;;1.95;;
15968;SDS011;8085;53.472;9.794;2023-08-20T09:41:25;8.45;;;1.73;;
15968;SDS011;8085;53.472;9.794;2023-08-20T09:43:55;4.00;;;1.67;;
15968;SDS011;8085;53.472;9.794;2023-08-20T09:46:26;5.10;;;1.70;;
15968;SDS011;8085;53.472;9.794;2023-08-20T09:48:55;6.25;;;2.15;;
15968;SDS011;8085;53.472;9.794;2023-08-20T09:51:24;5.88;;;1.60;;
15968;SDS011;8085;53.472;9.794;2023-08-20T09:53:53;9.65;;;2.13;;
15968;SDS011;8085;53.472;9.794;2023-08-20T09:56:27;7.18;;;2.20;;
15968;SDS011;8085;53.472;9.794;2023-08-20T09:58:56;8.00;;;2.15;;
15968;SDS011;8085;53.472;9.794;2023-08-20T10:01:25;6.38;;;2.08;;
15968;SDS011;8085;53.472;9.794;2023-08-20T10:03:53;7.68;;;2.35;;
15968;SDS011;8085;53.472;9.794;2023-08-20T10:06:20;7.18;;;2.00;;
15968;SDS011;8085;53.472;9.794;2023-08-20T10:08:47;4.63;;;1.95;;
15968;SDS011;8085;53.472;9.794;2023-08-20T10:11:16;6.45;;;1.98;;
15968;SDS011;8085;53.472;9.794;2023-08-20T10:13:43;6.32;;;1.73;;
15968;SDS011;8085;53.472;9.794;2023-08-20T10:16:12;6.55;;;2.10;;
15968;SDS011;8085;53.472;9.794;2023-08-20T10:18:39;11.85;;;2.30;;
15968;SDS011;8085;53.472;9.794;2023-08-20T10:21:06;8.38;;;2.35;;
15968;SDS011;8085;53.472;9.794;2023-08-20T10:23:36;5.85;;;2.45;;
15968;SDS011;8085;53.472;9.794;2023-08-20T10:26:07;7.13;;;2.30;;
15968;SDS011;8085;53.472;9.794;2023-08-20T10:28:36;4.75;;;2.03;;
15968;SDS011;8085;53.472;9.794;2023-08-20T10:31:04;6.90;;;2.45;;
15968;SDS011;8085;53.472;9.794;2023-08-20T10:33:37;9.05;;;2.35;;
15968;SDS011;8085;53.472;9.794;2023-08-20T10:36:14;10.85;;;2.45;;
15968;SDS011;8085;53.472;9.794;2023-08-20T10:38:42;9.20;;;2.38;;
15968;SDS011;8085;53.472;9.794;2023-08-20T10:41:12;6.47;;;1.98;;
15968;SDS011;8085;53.472;9.794;2023-08-20T10:43:45;8.18;;;2.10;;
15968;SDS011;8085;53.472;9.794;2023-08-20T10:46:14;7.40;;;2.00;;
15968;SDS011;8085;53.472;9.794;2023-08-20T10:48:46;7.82;;;2.45;;
15968;SDS011;8085;53.472;9.794;2023-08-20T10:51:14;7.45;;;2.35;;
15968;SDS011;8085;53.472;9.794;2023-08-20T10:53:43;7.97;;;1.77;;
15968;SDS011;8085;53.472;9.794;2023-08-20T10:56:15;7.75;;;1.75;;
15968;SDS011;8085;53.472;9.794;2023-08-20T10:58:43;9.07;;;1.67;;
15968;SDS011;8085;53.472;9.794;2023-08-20T11:01:18;7.80;;;1.85;;
15968;SDS011;8085;53.472;9.794;2023-08-20T11:03:49;6.22;;;2.67;;
15968;SDS011;8085;53.472;9.794;2023-08-20T11:06:17;8.70;;;2.00;;
15968;SDS011;8085;53.472;9.794;2023-08-20T11:08:44;4.47;;;2.40;;
15968;SDS011;8085;53.472;9.794;2023-08-20T11:11:12;5.95;;;1.80;;
15968;SDS011;8085;53.472;9.794;2023-08-20T11:13:40;10.75;;;2.72;;
15968;SDS011;8085;53.472;9.794;2023-08-20T11:16:07;9.93;;;2.72;;
15968;SDS011;8085;53.472;9.794;2023-08-20T11:18:35;7.25;;;2.67;;
15968;SDS011;8085;53.472;9.794;2023-08-20T11:21:03;11.45;;;2.70;;
15968;SDS011;8085;53.472;9.794;2023-08-20T11:23:30;7.55;;;1.90;;
15968;SDS011;8085;53.472;9.794;2023-08-20T11:25:58;5.88;;;2.17;;
15968;SDS011;8085;53.472;9.794;2023-08-20T11:28:26;4.85;;;1.90;;
15968;SDS011;8085;53.472;9.794;2023-08-20T11:30:54;7.28;;;2.13;;
15968;SDS011;8085;53.472;9.794;2023-08-20T11:33:22;8.25;;;2.03;;
15968;SDS011;8085;53.472;9.794;2023-08-20T11:35:49;3.97;;;2.00;;
15968;SDS011;8085;53.472;9.794;2023-08-20T11:38:18;7.68;;;2.70;;
15968;SDS011;8085;53.472;9.794;2023-08-20T11:40:47;4.43;;;1.80;;
15968;SDS011;8085;53.472;9.794;2023-08-20T11:43:14;4.13;;;1.73;;
15968;SDS011;8085;53.472;9.794;2023-08-20T11:45:45;5.10;;;1.88;;
15968;SDS011;8085;53.472;9.794;2023-08-20T11:48:13;6.65;;;2.33;;
15968;SDS011;8085;53.472;9.794;2023-08-20T11:50:40;5.95;;;2.17;;
15968;SDS011;8085;53.472;9.794;2023-08-20T11:53:08;3.80;;;2.28;;
15968;SDS011;8085;53.472;9.794;2023-08-20T11:55:37;7.95;;;1.60;;
15968;SDS011;8085;53.472;9.794;2023-08-20T11:58:09;5.25;;;1.80;;
15968;SDS011;8085;53.472;9.794;2023-08-20T12:00:37;5.10;;;1.90;;
15968;SDS011;8085;53.472;9.794;2023-08-20T12:03:04;6.07;;;2.20;;
15968;SDS011;8085;53.472;9.794;2023-08-20T12:05:32;8.23;;;2.13;;
15968;SDS011;8085;53.472;9.794;2023-08-20T12:08:00;9.82;;;1.65;;
15968;SDS011;8085;53.472;9.794;2023-08-20T12:10:30;6.03;;;1.67;;
15968;SDS011;8085;53.472;9.794;2023-08-20T12:13:00;5.05;;;2.00;;
15968;SDS011;8085;53.472;9.794;2023-08-20T12:15:31;6.25;;;2.00;;
15968;SDS011;8085;53.472;9.794;2023-08-20T12:17:59;4.30;;;1.70;;
15968;SDS011;8085;53.472;9.794;2023-08-20T12:20:30;5.40;;;1.58;;
15968;SDS011;8085;53.472;9.794;2023-08-20T12:23:01;4.85;;;1.48;;
15968;SDS011;8085;53.472;9.794;2023-08-20T12:25:30;4.65;;;1.60;;
15968;SDS011;8085;53.472;9.794;2023-08-20T12:27:58;3.65;;;1.73;;
15968;SDS011;8085;53.472;9.794;2023-08-20T12:30:28;5.43;;;1.63;;
15968;SDS011;8085;53.472;9.794;2023-08-20T12:32:55;4.80;;;1.80;;
15968;SDS011;8085;53.472;9.794;2023-08-20T12:35:22;8.60;;;1.50;;
15968;SDS011;8085;53.472;9.794;2023-08-20T12:37:49;5.50;;;1.70;;
15968;SDS011;8085;53.472;9.794;2023-08-20T12:40:16;6.47;;;1.60;;
15968;SDS011;8085;53.472;9.794;2023-08-20T12:42:43;4.47;;;1.50;;
15968;SDS011;8085;53.472;9.794;2023-08-20T12:45:11;6.50;;;1.92;;
15968;SDS011;8085;53.472;9.794;2023-08-20T12:47:38;4.25;;;1.77;;
15968;SDS011;8085;53.472;9.794;2023-08-20T12:50:06;7.57;;;2.28;;
15968;SDS011;8085;53.472;9.794;2023-08-20T12:52:33;6.53;;;1.63;;
15968;SDS011;8085;53.472;9.794;2023-08-20T12:55:00;3.83;;;1.85;;
15968;SDS011;8085;53.472;9.794;2023-08-20T12:57:27;6.50;;;2.58;;
15968;SDS011;8085;53.472;9.794;2023-08-20T12:59:54;4.72;;;1.85;;
15968;SDS011;8085;53.472;9.794;2023-08-20T13:02:23;8.05;;;2.00;;
15968;SDS011;8085;53.472;9.794;2023-08-20T13:04:50;3.45;;;1.80;;
15968;SDS011;8085;53.472;9.794;2023-08-20T13:07:18;4.78;;;2.00;;
15968;SDS011;8085;53.472;9.794;2023-08-20T13:09:45;3.67;;;2.53;;
15968;SDS011;8085;53.472;9.794;2023-08-20T13:12:12;5.78;;;1.73;;
15968;SDS011;8085;53.472;9.794;2023-08-20T13:14:40;6.45;;;2.47;;
15968;SDS011;8085;53.472;9.794;2023-08-20T13:17:08;6.38;;;1.60;;
15968;SDS011;8085;53.472;9.794;2023-08-20T13:19:36;3.47;;;1.63;;
15968;SDS011;8085;53.472;9.794;2023-08-20T13:22:03;4.45;;;1.83;;
15968;SDS011;8085;53.472;9.794;2023-08-20T13:24:31;5.38;;;1.70;;
15968;SDS011;8085;53.472;9.794;2023-08-20T13:26:58;7.10;;;2.40;;
15968;SDS011;8085;53.472;9.794;2023-08-20T13:29:25;3.92;;;1.73;;
15968;SDS011;8085;53.472;9.794;2023-08-20T13:31:52;10.88;;;2.50;;
15968;SDS011;8085;53.472;9.794;2023-08-20T13:34:18;4.15;;;1.92;;
15968;SDS011;8085;53.472;9.794;2023-08-20T13:36:47;4.32;;;1.92;;
15968;SDS011;8085;53.472;9.794;2023-08-20T13:39:14;8.93;;;1.80;;
15968;SDS011;8085;53.472;9.794;2023-08-20T13:41:43;7.25;;;1.80;;
15968;SDS011;8085;53.472;9.794;2023-08-20T13:44:10;4.05;;;2.00;;
15968;SDS011;8085;53.472;9.794;2023-08-20T13:46:37;4.65;;;2.10;;
15968;SDS011;8085;53.472;9.794;2023-08-20T13:49:04;6.60;;;1.90;;
15968;SDS011;8085;53.472;9.794;2023-08-20T13:51:31;5.13;;;2.25;;
15968;SDS011;8085;53.472;9.794;2023-08-20T13:53:59;7.05;;;1.98;;
15968;SDS011;8085;53.472;9.794;2023-08-20T13:56:26;4.30;;;1.55;;
15968;SDS011;8085;53.472;9.794;2023-08-20T13:58:53;4.60;;;1.48;;
15968;SDS011;8085;53.472;9.794;2023-08-20T14:01:20;3.67;;;1.70;;
15968;SDS011;8085;53.472;9.794;2023-08-20T14:03:47;4.10;;;1.95;;
15968;SDS011;8085;53.472;9.794;2023-08-20T14:06:15;3.33;;;1.40;;
15968;SDS011;8085;53.472;9.794;2023-08-20T14:08:42;5.60;;;1.63;;
15968;SDS011;8085;53.472;9.794;2023-08-20T14:11:11;4.88;;;1.25;;
15968;SDS011;8085;53.472;9.794;2023-08-20T14:13:37;4.35;;;1.40;;
15968;SDS011;8085;53.472;9.794;2023-08-20T14:16:05;3.80;;;1.88;;
15968;SDS011;8085;53.472;9.794;2023-08-20T14:18:32;4.63;;;1.40;;
15968;SDS011;8085;53.472;9.794;2023-08-20T14:20:58;4.22;;;2.10;;
15968;SDS011;8085;53.472;9.794;2023-08-20T14:23:25;3.85;;;1.58;;
15968;SDS011;8085;53.472;9.794;2023-08-20T14:25:53;5.25;;;1.20;;
15968;SDS011;8085;53.472;9.794;2023-08-20T14:28:22;4.07;;;1.60;;
15968;SDS011;8085;53.472;9.794;2023-08-20T14:30:49;5.63;;;1.98;;
15968;SDS011;8085;53.472;9.794;2023-08-20T14:33:19;3.25;;;1.10;;
15968;SDS011;8085;53.472;9.794;2023-08-20T14:35:46;4.57;;;1.60;;
15968;SDS011;8085;53.472;9.794;2023-08-20T14:38:13;5.38;;;1.30;;
15968;SDS011;8085;53.472;9.794;2023-08-20T14:40:40;4.72;;;1.77;;
15968;SDS011;8085;53.472;9.794;2023-08-20T14:43:07;2.58;;;1.17;;
15968;SDS011;8085;53.472;9.794;2023-08-20T14:45:35;5.43;;;1.60;;
15968;SDS011;8085;53.472;9.794;2023-08-20T14:48:02;2.45;;;1.20;;
15968;SDS011;8085;53.472;9.794;2023-08-20T14:50:29;5.35;;;1.20;;
15968;SDS011;8085;53.472;9.794;2023-08-20T14:52:56;4.60;;;1.27;;
15968;SDS011;8085;53.472;9.794;2023-08-20T14:55:23;3.78;;;1.70;;
15968;SDS011;8085;53.472;9.794;2023-08-20T14:57:50;3.47;;;1.50;;
15968;SDS011;8085;53.472;9.794;2023-08-20T15:00:17;5.85;;;1.25;;
15968;SDS011;8085;53.472;9.794;2023-08-20T15:02:46;3.60;;;1.30;;
15968;SDS011;8085;53.472;9.794;2023-08-20T15:05:13;4.05;;;1.23;;
15968;SDS011;8085;53.472;9.794;2023-08-20T15:07:40;2.30;;;1.10;;
15968;SDS011;8085;53.472;9.794;2023-08-20T15:10:07;4.57;;;1.55;;
15968;SDS011;8085;53.472;9.794;2023-08-20T15:12:35;3.35;;;1.80;;
15968;SDS011;8085;53.472;9.794;2023-08-20T15:15:03;4.15;;;1.50;;
15968;SDS011;8085;53.472;9.794;2023-08-20T15:17:31;4.13;;;1.10;;
15968;SDS011;8085;53.472;9.794;2023-08-20T15:19:59;5.70;;;1.58;;
15968;SDS011;8085;53.472;9.794;2023-08-20T15:22:27;4.32;;;1.65;;
15968;SDS011;8085;53.472;9.794;2023-08-20T15:24:54;3.03;;;1.10;;
15968;SDS011;8085;53.472;9.794;2023-08-20T15:27:22;6.82;;;1.27;;
15968;SDS011;8085;53.472;9.794;2023-08-20T15:29:49;7.45;;;1.60;;
15968;SDS011;8085;53.472;9.794;2023-08-20T15:32:16;3.50;;;1.25;;
15968;SDS011;8085;53.472;9.794;2023-08-20T15:34:43;2.55;;;1.02;;
15968;SDS011;8085;53.472;9.794;2023-08-20T15:37:11;3.10;;;1.58;;
15968;SDS011;8085;53.472;9.794;2023-08-20T15:39:38;5.65;;;1.63;;
15968;SDS011;8085;53.472;9.794;2023-08-20T15:42:05;4.63;;;1.00;;
15968;SDS011;8085;53.472;9.794;2023-08-20T15:44:32;4.50;;;1.77;;
15968;SDS011;8085;53.472;9.794;2023-08-20T15:46:59;3.65;;;1.30;;
15968;SDS011;8085;53.472;9.794;2023-08-20T15:49:26;3.55;;;1.20;;
15968;SDS011;8085;53.472;9.794;2023-08-20T15:51:53;4.43;;;1.20;;
15968;SDS011;8085;53.472;9.794;2023-08-20T15:54:22;2.40;;;1.60;;
15968;SDS011;8085;53.472;9.794;2023-08-20T15:56:50;2.20;;;1.30;;
15968;SDS011;8085;53.472;9.794;2023-08-20T15:59:17;4.15;;;1.58;;
15968;SDS011;8085;53.472;9.794;2023-08-20T16:01:44;3.03;;;1.00;;
15968;SDS011;8085;53.472;9.794;2023-08-20T16:04:12;2.65;;;0.82;;
15968;SDS011;8085;53.472;9.794;2023-08-20T16:06:39;4.25;;;1.13;;
15968;SDS011;8085;53.472;9.794;2023-08-20T16:09:06;3.40;;;0.82;;
15968;SDS011;8085;53.472;9.794;2023-08-20T16:11:34;4.90;;;1.20;;
15968;SDS011;8085;53.472;9.794;2023-08-20T16:14:01;3.58;;;0.90;;
15968;SDS011;8085;53.472;9.794;2023-08-20T16:16:28;6.18;;;1.27;;
15968;SDS011;8085;53.472;9.794;2023-08-20T16:18:55;3.20;;;0.95;;
15968;SDS011;8085;53.472;9.794;2023-08-20T16:21:22;2.53;;;1.00;;
15968;SDS011;8085;53.472;9.794;2023-08-20T16:23:49;3.58;;;1.35;;
15968;SDS011;8085;53.472;9.794;2023-08-20T16:26:16;3.28;;;0.98;;
15968;SDS011;8085;53.472;9.794;2023-08-20T16:28:44;3.88;;;1.10;;
15968;SDS011;8085;53.472;9.794;2023-08-20T16:31:11;4.07;;;1.45;;
15968;SDS011;8085;53.472;9.794;2023-08-20T16:33:38;1.30;;;0.88;;
15968;SDS011;8085;53.472;9.794;2023-08-20T16:36:05;3.45;;;0.80;;
15968;SDS011;8085;53.472;9.794;2023-08-20T16:38:32;4.57;;;1.77;;
15968;SDS011;8085;53.472;9.794;2023-08-20T16:40:59;2.03;;;1.38;;
15968;SDS011;8085;53.472;9.794;2023-08-20T16:43:27;1.80;;;0.80;;
15968;SDS011;8085;53.472;9.794;2023-08-20T16:45:56;4.20;;;1.13;;
15968;SDS011;8085;53.472;9.794;2023-08-20T16:48:24;3.67;;;1.63;;
15968;SDS011;8085;53.472;9.794;2023-08-20T16:50:51;2.20;;;0.82;;
15968;SDS011;8085;53.472;9.794;2023-08-20T16:53:18;3.92;;;0.80;;
15968;SDS011;8085;53.472;9.794;2023-08-20T16:55:49;3.53;;;1.00;;
15968;SDS011;8085;53.472;9.794;2023-08-20T16:58:17;4.05;;;1.27;;
15968;SDS011;8085;53.472;9.794;2023-08-20T17:00:44;3.50;;;1.25;;
15968;SDS011;8085;53.472;9.794;2023-08-20T17:03:13;3.90;;;1.60;;
15968;SDS011;8085;53.472;9.794;2023-08-20T17:05:40;3.45;;;1.60;;
15968;SDS011;8085;53.472;9.794;2023-08-20T17:08:07;3.53;;;1.20;;
15968;SDS011;8085;53.472;9.794;2023-08-20T17:10:34;4.18;;;1.02;;
15968;SDS011;8085;53.472;9.794;2023-08-20T17:13:01;3.88;;;1.00;;
15968;SDS011;8085;53.472;9.794;2023-08-20T17:15:28;3.67;;;1.65;;